createdAt,value
2016-11-17T00:00:42.596Z,35.18
2016-11-17T00:01:42.851Z,34.7
2016-11-17T00:02:42.475Z,34.89
2016-11-17T00:03:42.415Z,34.7
2016-11-17T00:04:42.353Z,34.7
2016-11-17T00:05:42.292Z,34.79
2016-11-17T00:06:42.233Z,35.18
2016-11-17T00:07:42.170Z,35.08
2016-11-17T00:08:42.152Z,35.08
2016-11-17T00:09:42.048Z,34.79
2016-11-17T00:10:41.994Z,34.89
2016-11-17T00:11:41.929Z,34.7
2016-11-17T00:12:41.867Z,34.89
2016-11-17T00:13:41.805Z,34.6
2016-11-17T00:14:41.749Z,34.79
2016-11-17T00:15:41.684Z,34.99
2016-11-17T00:16:41.626Z,34.99
2016-11-17T00:17:41.563Z,34.6
2016-11-17T00:18:41.504Z,34.7
2016-11-17T00:19:41.444Z,34.7
2016-11-17T00:20:41.382Z,34.7
2016-11-17T00:21:41.320Z,34.6
2016-11-17T00:22:41.260Z,34.7
2016-11-17T00:23:41.201Z,34.7
2016-11-17T00:24:41.137Z,35.06
2016-11-17T00:25:41.076Z,34.7
2016-11-17T00:26:41.016Z,34.79
2016-11-17T00:27:40.955Z,34.99
2016-11-17T00:28:40.894Z,34.5
2016-11-17T00:29:40.835Z,34.6
2016-11-17T00:30:40.777Z,34.7
2016-11-17T00:31:40.746Z,34.79
2016-11-17T00:32:40.654Z,34.99
2016-11-17T00:33:40.599Z,34.89
2016-11-17T00:34:40.534Z,34.7
2016-11-17T00:35:40.473Z,34.78
2016-11-17T00:36:40.409Z,35.08
2016-11-17T00:37:40.352Z,35.08
2016-11-17T00:38:40.291Z,35.08
2016-11-17T00:39:40.229Z,34.7
2016-11-17T00:40:40.165Z,34.99
2016-11-17T00:41:40.112Z,34.79
2016-11-17T00:42:40.047Z,34.97
2016-11-17T00:43:39.986Z,34.7
2016-11-17T00:44:39.927Z,34.6
2016-11-17T00:45:39.865Z,34.68
2016-11-17T00:46:39.803Z,34.7
2016-11-17T00:47:39.745Z,34.78
2016-11-17T00:48:39.682Z,34.78
2016-11-17T00:49:39.621Z,34.68
2016-11-17T00:50:39.560Z,34.68
2016-11-17T00:51:39.501Z,34.68
2016-11-17T00:52:39.625Z,34.68
2016-11-17T00:53:39.379Z,34.7
2016-11-17T00:54:39.317Z,34.87
2016-11-17T00:55:39.256Z,34.87
2016-11-17T00:56:39.204Z,34.68
2016-11-17T00:57:39.136Z,34.68
2016-11-17T00:58:39.076Z,34.78
2016-11-17T00:59:39.018Z,34.79
2016-11-17T01:00:38.957Z,34.78
2016-11-17T01:01:38.898Z,34.68
2016-11-17T01:02:38.831Z,34.78
2016-11-17T01:03:38.771Z,35.26
2016-11-17T01:04:38.710Z,34.78
2016-11-17T01:05:38.652Z,35.26
2016-11-17T01:06:38.588Z,35.06
2016-11-17T01:07:38.528Z,34.68
2016-11-17T01:08:38.472Z,34.68
2016-11-17T01:09:38.410Z,34.68
2016-11-17T01:10:38.348Z,34.78
2016-11-17T01:11:38.286Z,34.87
2016-11-17T01:12:38.225Z,34.58
2016-11-17T01:13:38.163Z,34.78
2016-11-17T01:14:38.114Z,34.78
2016-11-17T01:15:38.047Z,34.78
2016-11-17T01:16:37.983Z,34.97
2016-11-17T01:17:37.921Z,34.78
2016-11-17T01:18:37.864Z,34.78
2016-11-17T01:19:37.828Z,35.37
2016-11-17T01:20:37.741Z,34.87
2016-11-17T01:21:37.682Z,34.87
2016-11-17T01:22:37.639Z,34.87
2016-11-17T01:23:37.560Z,34.89
2016-11-17T01:24:37.499Z,35.16
2016-11-17T01:25:37.434Z,34.79
2016-11-17T01:26:37.375Z,34.79
2016-11-17T01:27:37.318Z,34.79
2016-11-17T01:28:37.252Z,35.08
2016-11-17T01:29:37.196Z,34.7
2016-11-17T01:30:37.132Z,34.99
2016-11-17T01:31:37.071Z,34.6
2016-11-17T01:32:37.012Z,34.7
2016-11-17T01:33:36.949Z,34.41
2016-11-17T01:34:36.889Z,34.41
2016-11-17T01:35:36.828Z,34.6
2016-11-17T01:36:36.769Z,34.31
2016-11-17T01:37:36.705Z,34.41
2016-11-17T01:38:36.652Z,34.7
2016-11-17T01:39:36.586Z,34.31
2016-11-17T01:40:36.526Z,34.41
2016-11-17T01:41:36.465Z,34.79
2016-11-17T01:42:36.414Z,34.6
2016-11-17T01:43:36.660Z,34.21
2016-11-17T01:44:36.281Z,34.12
2016-11-17T01:45:36.221Z,34.7
2016-11-17T01:46:36.162Z,34.21
2016-11-17T01:47:36.104Z,34.6
2016-11-17T01:48:36.042Z,34.7
2016-11-17T01:49:35.984Z,34.21
2016-11-17T01:50:35.921Z,34.12
2016-11-17T01:51:35.865Z,34.62
2016-11-17T01:52:35.800Z,34.5
2016-11-17T01:53:35.740Z,34.5
2016-11-17T01:54:35.681Z,34.52
2016-11-17T01:55:35.620Z,34.23
2016-11-17T01:56:35.562Z,34.41
2016-11-17T01:57:35.500Z,34.33
2016-11-17T01:58:35.440Z,34.42
2016-11-17T01:59:35.381Z,34.42
2016-11-17T02:00:35.319Z,34.04
2016-11-17T02:01:35.258Z,34.42
2016-11-17T02:02:35.198Z,34.33
2016-11-17T02:03:35.147Z,34.04
2016-11-17T02:04:35.077Z,34.99
2016-11-17T02:05:35.019Z,34.12
2016-11-17T02:06:34.960Z,34.12
2016-11-17T02:07:34.899Z,34.31
2016-11-17T02:08:34.846Z,34.31
2016-11-17T02:09:34.776Z,35.08
2016-11-17T02:10:34.714Z,34.99
2016-11-17T02:11:34.654Z,34.89
2016-11-17T02:12:34.595Z,34.79
2016-11-17T02:13:34.533Z,34.91
2016-11-17T02:14:34.472Z,34.13
2016-11-17T02:15:34.412Z,34.33
2016-11-17T02:16:34.350Z,34.89
2016-11-17T02:17:34.288Z,34.41
2016-11-17T02:18:34.230Z,34.12
2016-11-17T02:19:34.169Z,34.6
2016-11-17T02:20:34.109Z,34.5
2016-11-17T02:21:34.051Z,34.21
2016-11-17T02:22:33.986Z,34.7
2016-11-17T02:23:33.926Z,34.7
2016-11-17T02:24:33.867Z,34.6
2016-11-17T02:25:33.804Z,34.79
2016-11-17T02:26:33.745Z,34.79
2016-11-17T02:27:33.687Z,34.12
2016-11-17T02:28:33.622Z,34.31
2016-11-17T02:29:33.563Z,34.6
2016-11-17T02:30:33.499Z,34.31
2016-11-17T02:31:33.438Z,34.21
2016-11-17T02:32:33.380Z,34.02
2016-11-17T02:33:33.317Z,34.79
2016-11-17T02:34:33.260Z,34.31
2016-11-17T02:35:33.199Z,34.7
2016-11-17T02:36:33.139Z,34.21
2016-11-17T02:37:33.078Z,34.79
2016-11-17T02:38:33.020Z,34.7
2016-11-17T02:39:32.963Z,34.7
2016-11-17T02:40:32.898Z,34.31
2016-11-17T02:41:32.834Z,34.21
2016-11-17T02:42:32.772Z,34.12
2016-11-17T02:43:32.713Z,34.7
2016-11-17T02:44:32.652Z,34.21
2016-11-17T02:45:32.590Z,34.7
2016-11-17T02:46:32.531Z,34.5
2016-11-17T02:47:32.467Z,34.6
2016-11-17T02:48:32.412Z,34.5
2016-11-17T02:49:32.348Z,34.6
2016-11-17T02:50:32.287Z,34.6
2016-11-17T02:51:32.233Z,34.31
2016-11-17T02:52:32.168Z,34.41
2016-11-17T02:53:32.107Z,34.41
2016-11-17T02:54:32.045Z,34.5
2016-11-17T02:55:31.984Z,34.5
2016-11-17T02:56:31.925Z,34.41
2016-11-17T02:57:31.864Z,34.41
2016-11-17T02:58:31.803Z,34.41
2016-11-17T02:59:31.743Z,34.89
2016-11-17T03:00:31.685Z,34.7
2016-11-17T03:01:31.621Z,34.12
2016-11-17T03:02:31.559Z,34.12
2016-11-17T03:03:31.500Z,34.12
2016-11-17T03:04:31.440Z,34.21
2016-11-17T03:05:31.382Z,34.7
2016-11-17T03:06:31.318Z,34.7
2016-11-17T03:07:31.258Z,34.79
2016-11-17T03:08:31.197Z,34.89
2016-11-17T03:09:31.137Z,34.7
2016-11-17T03:10:31.077Z,34.7
2016-11-17T03:11:31.016Z,34.21
2016-11-17T03:12:30.952Z,34.7
2016-11-17T03:13:30.893Z,34.99
2016-11-17T03:14:30.832Z,34.79
2016-11-17T03:15:30.776Z,34.97
2016-11-17T03:16:30.717Z,34.41
2016-11-17T03:17:30.652Z,34.39
2016-11-17T03:18:30.591Z,34.78
2016-11-17T03:19:30.531Z,34.48
2016-11-17T03:20:30.466Z,34.78
2016-11-17T03:21:30.451Z,34.5
2016-11-17T03:22:30.350Z,34.58
2016-11-17T03:23:30.287Z,34.48
2016-11-17T03:24:30.231Z,34.48
2016-11-17T03:25:30.167Z,34.48
2016-11-17T03:26:30.108Z,34.5
2016-11-17T03:27:30.045Z,34.29
2016-11-17T03:28:29.985Z,34.39
2016-11-17T03:29:29.927Z,34.48
2016-11-17T03:30:29.866Z,34.6
2016-11-17T03:31:29.804Z,34.78
2016-11-17T03:32:29.745Z,34.89
2016-11-17T03:33:29.684Z,34.79
2016-11-17T03:34:29.623Z,35.08
2016-11-17T03:35:29.563Z,34.99
2016-11-17T03:36:29.502Z,34.99
2016-11-17T03:37:29.441Z,34.99
2016-11-17T03:38:29.381Z,34.7
2016-11-17T03:39:29.321Z,34.6
2016-11-17T03:40:29.260Z,34.79
2016-11-17T03:41:29.200Z,35.08
2016-11-17T03:42:29.141Z,34.7
2016-11-17T03:43:29.113Z,34.7
2016-11-17T03:44:29.019Z,34.21
2016-11-17T03:45:28.993Z,34.6
2016-11-17T03:46:28.901Z,34.6
2016-11-17T03:47:28.836Z,34.6
2016-11-17T03:48:28.774Z,34.21
2016-11-17T03:49:28.716Z,34.7
2016-11-17T03:50:28.655Z,34.79
2016-11-17T03:51:28.595Z,34.79
2016-11-17T03:52:28.532Z,34.31
2016-11-17T03:53:28.473Z,34.12
2016-11-17T03:54:28.415Z,34.79
2016-11-17T03:55:28.354Z,34.7
2016-11-17T03:56:28.292Z,34.31
2016-11-17T03:57:28.230Z,34.12
2016-11-17T03:58:28.175Z,34.79
2016-11-17T03:59:28.112Z,34.21
2016-11-17T04:00:28.053Z,34.7
2016-11-17T04:01:27.986Z,34.31
2016-11-17T04:02:27.933Z,34.31
2016-11-17T04:03:27.868Z,34.6
2016-11-17T04:04:27.809Z,34.02
2016-11-17T04:05:27.749Z,33.92
2016-11-17T04:06:27.691Z,34.6
2016-11-17T04:07:27.632Z,34.62
2016-11-17T04:08:27.570Z,34.12
2016-11-17T04:09:27.509Z,34.52
2016-11-17T04:10:27.445Z,34.79
2016-11-17T04:11:27.389Z,34.99
2016-11-17T04:12:27.364Z,34.23
2016-11-17T04:13:27.268Z,34.41
2016-11-17T04:14:27.205Z,34.89
2016-11-17T04:15:27.157Z,34.02
2016-11-17T04:16:27.086Z,34.33
2016-11-17T04:17:27.028Z,34.42
2016-11-17T04:18:26.964Z,34.23
2016-11-17T04:19:26.905Z,34.33
2016-11-17T04:20:26.846Z,34.33
2016-11-17T04:21:26.785Z,34.52
2016-11-17T04:22:26.725Z,34.42
2016-11-17T04:23:26.665Z,34.42
2016-11-17T04:24:26.602Z,34.52
2016-11-17T04:25:26.542Z,34.21
2016-11-17T04:26:26.482Z,34.62
2016-11-17T04:27:26.423Z,34.52
2016-11-17T04:28:26.366Z,34.71
2016-11-17T04:29:26.301Z,34.6
2016-11-17T04:30:26.246Z,34.62
2016-11-17T04:31:26.184Z,34.6
2016-11-17T04:32:26.121Z,34.23
2016-11-17T04:33:26.063Z,34.42
2016-11-17T04:34:26.005Z,34.31
2016-11-17T04:35:25.940Z,34.33
2016-11-17T04:36:25.881Z,34.62
2016-11-17T04:37:25.818Z,34.41
2016-11-17T04:38:25.761Z,34.23
2016-11-17T04:39:25.704Z,34.62
2016-11-17T04:40:25.637Z,34.62
2016-11-17T04:41:25.582Z,34.21
2016-11-17T04:42:25.518Z,34.42
2016-11-17T04:43:25.458Z,34.6
2016-11-17T04:44:25.400Z,34.21
2016-11-17T04:45:25.345Z,34.5
2016-11-17T04:46:25.282Z,34.41
2016-11-17T04:47:25.219Z,34.89
2016-11-17T04:48:25.160Z,34.04
2016-11-17T04:49:25.096Z,34.12
2016-11-17T04:50:25.037Z,35.08
2016-11-17T04:51:24.974Z,34.99
2016-11-17T04:52:24.928Z,34.02
2016-11-17T04:53:24.858Z,34.12
2016-11-17T04:54:24.796Z,34.21
2016-11-17T04:55:24.736Z,34.12
2016-11-17T04:56:24.677Z,34.89
2016-11-17T04:57:24.615Z,34.12
2016-11-17T04:58:24.555Z,34.21
2016-11-17T04:59:24.529Z,34.21
2016-11-17T05:00:24.435Z,34.5
2016-11-17T05:01:24.375Z,34.7
2016-11-17T05:02:24.323Z,34.21
2016-11-17T05:03:24.253Z,34.02
2016-11-17T05:04:24.197Z,34.79
2016-11-17T05:05:24.134Z,34.89
2016-11-17T05:06:24.073Z,34.79
2016-11-17T05:07:24.014Z,34.89
2016-11-17T05:08:23.960Z,34.79
2016-11-17T05:09:23.892Z,34.12
2016-11-17T05:10:23.832Z,34.12
2016-11-17T05:11:23.777Z,34.12
2016-11-17T05:12:23.716Z,34.79
2016-11-17T05:13:23.660Z,34.41
2016-11-17T05:14:23.595Z,34.12
2016-11-17T05:15:23.534Z,34.31
2016-11-17T05:16:23.475Z,34.79
2016-11-17T05:17:23.416Z,34.31
2016-11-17T05:18:23.353Z,34.7
2016-11-17T05:19:23.293Z,34.21
2016-11-17T05:20:23.233Z,34.21
2016-11-17T05:21:23.174Z,34.6
2016-11-17T05:22:23.112Z,34.6
2016-11-17T05:23:23.053Z,34.6
2016-11-17T05:24:22.990Z,34.6
2016-11-17T05:25:22.932Z,34.5
2016-11-17T05:26:22.869Z,34.41
2016-11-17T05:27:22.811Z,34.21
2016-11-17T05:28:22.749Z,34.41
2016-11-17T05:29:22.688Z,34.5
2016-11-17T05:30:22.628Z,34.7
2016-11-17T05:31:22.568Z,34.7
2016-11-17T05:32:22.507Z,34.5
2016-11-17T05:33:22.449Z,34.7
2016-11-17T05:34:22.386Z,34.31
2016-11-17T05:35:22.324Z,34.7
2016-11-17T05:36:22.266Z,33.92
2016-11-17T05:37:22.205Z,34.21
2016-11-17T05:38:22.145Z,34.41
2016-11-17T05:39:22.087Z,34.58
2016-11-17T05:40:22.026Z,34.41
2016-11-17T05:41:21.964Z,35.08
2016-11-17T05:42:21.903Z,34.6
2016-11-17T05:43:21.842Z,34.89
2016-11-17T05:44:21.780Z,34.89
2016-11-17T05:45:21.723Z,35.18
2016-11-17T05:46:21.660Z,34.79
2016-11-17T05:47:21.601Z,35.08
2016-11-17T05:48:21.539Z,34.79
2016-11-17T05:49:21.479Z,34.79
2016-11-17T05:50:21.737Z,35.08
2016-11-17T05:51:21.358Z,34.79
2016-11-17T05:52:21.298Z,34.7
2016-11-17T05:53:21.237Z,34.79
2016-11-17T05:54:21.179Z,34.6
2016-11-17T05:55:21.116Z,35.08
2016-11-17T05:56:21.052Z,34.79
2016-11-17T05:57:20.993Z,34.5
2016-11-17T05:58:20.931Z,34.41
2016-11-17T05:59:20.872Z,34.7
2016-11-17T06:00:20.814Z,34.79
2016-11-17T06:01:20.752Z,34.41
2016-11-17T06:02:20.693Z,34.31
2016-11-17T06:03:20.632Z,34.41
2016-11-17T06:04:20.572Z,34.79
2016-11-17T06:05:20.508Z,34.23
2016-11-17T06:06:20.450Z,34.7
2016-11-17T06:07:20.388Z,34.91
2016-11-17T06:08:20.328Z,34.71
2016-11-17T06:09:20.267Z,34.13
2016-11-17T06:10:20.208Z,34.23
2016-11-17T06:11:20.149Z,34.81
2016-11-17T06:12:20.088Z,34.81
2016-11-17T06:13:20.059Z,34.13
2016-11-17T06:14:19.966Z,34.52
2016-11-17T06:15:19.905Z,34.42
2016-11-17T06:16:19.846Z,34.62
2016-11-17T06:17:19.787Z,34.52
2016-11-17T06:18:20.050Z,34.42
2016-11-17T06:19:19.666Z,34.62
2016-11-17T06:20:19.604Z,34.33
2016-11-17T06:21:19.546Z,33.84
2016-11-17T06:22:19.483Z,34.04
2016-11-17T06:23:19.421Z,34.52
2016-11-17T06:24:19.364Z,33.84
2016-11-17T06:25:19.303Z,34.13
2016-11-17T06:26:19.242Z,34.34
2016-11-17T06:27:19.184Z,34.23
2016-11-17T06:28:19.122Z,34.13
2016-11-17T06:29:19.061Z,34.25
2016-11-17T06:30:19.001Z,33.86
2016-11-17T06:31:18.942Z,33.84
2016-11-17T06:32:18.882Z,34.33
2016-11-17T06:33:18.822Z,34.33
2016-11-17T06:34:18.760Z,33.84
2016-11-17T06:35:18.701Z,34.13
2016-11-17T06:36:18.640Z,34.42
2016-11-17T06:37:18.582Z,34.42
2016-11-17T06:38:18.521Z,34.54
2016-11-17T06:39:18.464Z,34.62
2016-11-17T06:40:18.403Z,34.52
2016-11-17T06:41:18.341Z,34.52
2016-11-17T06:42:18.279Z,34.62
2016-11-17T06:43:18.221Z,34.33
2016-11-17T06:44:18.160Z,34.71
2016-11-17T06:45:18.100Z,34.52
2016-11-17T06:46:18.040Z,34.42
2016-11-17T06:47:17.980Z,34.23
2016-11-17T06:48:17.932Z,34.33
2016-11-17T06:49:17.861Z,34.42
2016-11-17T06:50:17.802Z,34.52
2016-11-17T06:51:17.739Z,34.42
2016-11-17T06:52:17.680Z,34.91
2016-11-17T06:53:17.619Z,34.33
2016-11-17T06:54:17.561Z,34.33
2016-11-17T06:55:17.499Z,34.52
2016-11-17T06:56:17.437Z,34.71
2016-11-17T06:57:17.378Z,34.62
2016-11-17T06:58:17.319Z,34.23
2016-11-17T06:59:17.255Z,34.04
2016-11-17T07:00:17.196Z,34.81
2016-11-17T07:01:17.135Z,34.81
2016-11-17T07:02:17.073Z,34.13
2016-11-17T07:03:17.016Z,34.91
2016-11-17T07:04:16.954Z,34.62
2016-11-17T07:05:16.895Z,34.33
2016-11-17T07:06:16.833Z,34.33
2016-11-17T07:07:16.774Z,34.23
2016-11-17T07:08:16.713Z,34.33
2016-11-17T07:09:16.651Z,34.71
2016-11-17T07:10:16.591Z,34.13
2016-11-17T07:11:16.531Z,34.71
2016-11-17T07:12:16.471Z,34.71
2016-11-17T07:13:16.410Z,34.7
2016-11-17T07:14:16.358Z,34.21
2016-11-17T07:15:16.293Z,34.21
2016-11-17T07:16:16.229Z,34.7
2016-11-17T07:17:16.172Z,34.6
2016-11-17T07:18:16.108Z,34.12
2016-11-17T07:19:16.049Z,34.6
2016-11-17T07:20:15.987Z,34.5
2016-11-17T07:21:15.927Z,34.62
2016-11-17T07:22:15.867Z,34.5
2016-11-17T07:23:15.809Z,34.41
2016-11-17T07:24:15.746Z,34.41
2016-11-17T07:25:15.686Z,34.41
2016-11-17T07:26:15.624Z,34.21
2016-11-17T07:27:15.564Z,34.41
2016-11-17T07:28:15.506Z,34.79
2016-11-17T07:29:15.442Z,34.21
2016-11-17T07:30:15.393Z,34.31
2016-11-17T07:31:15.323Z,35.08
2016-11-17T07:32:15.261Z,34.7
2016-11-17T07:33:15.201Z,34.7
2016-11-17T07:34:15.144Z,34.31
2016-11-17T07:35:15.082Z,34.7
2016-11-17T07:36:15.022Z,34.31
2016-11-17T07:37:14.958Z,34.41
2016-11-17T07:38:14.900Z,34.31
2016-11-17T07:39:14.836Z,34.5
2016-11-17T07:40:14.778Z,34.89
2016-11-17T07:41:14.718Z,34.79
2016-11-17T07:42:14.659Z,34.41
2016-11-17T07:43:14.600Z,34.6
2016-11-17T07:44:14.535Z,34.7
2016-11-17T07:45:14.476Z,35.08
2016-11-17T07:46:14.415Z,34.7
2016-11-17T07:47:14.354Z,34.99
2016-11-17T07:48:14.293Z,34.79
2016-11-17T07:49:14.237Z,34.99
2016-11-17T07:50:14.175Z,34.6
2016-11-17T07:51:14.115Z,34.5
2016-11-17T07:52:14.054Z,34.5
2016-11-17T07:53:13.997Z,34.7
2016-11-17T07:54:13.931Z,34.7
2016-11-17T07:55:13.873Z,34.6
2016-11-17T07:56:13.817Z,35.18
2016-11-17T07:57:13.748Z,34.79
2016-11-17T07:58:13.691Z,34.7
2016-11-17T07:59:13.633Z,34.79
2016-11-17T08:00:13.672Z,35.08
2016-11-17T08:01:13.510Z,34.79
2016-11-17T08:02:13.447Z,34.89
2016-11-17T08:03:13.387Z,34.89
2016-11-17T08:04:13.327Z,34.79
2016-11-17T08:05:13.267Z,34.89
2016-11-17T08:06:13.205Z,34.79
2016-11-17T08:07:13.145Z,34.41
2016-11-17T08:08:13.088Z,35.08
2016-11-17T08:09:13.024Z,34.6
2016-11-17T08:10:12.965Z,34.6
2016-11-17T08:11:12.903Z,34.79
2016-11-17T08:12:12.846Z,34.99
2016-11-17T08:13:12.783Z,35.18
2016-11-17T08:14:12.722Z,34.6
2016-11-17T08:15:12.661Z,34.7
2016-11-17T08:16:12.867Z,35.28
2016-11-17T08:17:12.541Z,34.99
2016-11-17T08:18:12.800Z,34.6
2016-11-17T08:19:12.418Z,34.7
2016-11-17T08:20:12.384Z,34.6
2016-11-17T08:21:12.298Z,34.7
2016-11-17T08:22:12.237Z,34.5
2016-11-17T08:23:12.178Z,34.31
2016-11-17T08:24:12.116Z,34.5
2016-11-17T08:25:12.056Z,34.31
2016-11-17T08:26:11.995Z,34.7
2016-11-17T08:27:11.935Z,34.81
2016-11-17T08:28:12.543Z,34.02
2016-11-17T08:29:11.813Z,34.02
2016-11-17T08:30:11.755Z,34.5
2016-11-17T08:31:11.703Z,34.5
2016-11-17T08:32:11.632Z,34.81
2016-11-17T08:33:11.573Z,34.21
2016-11-17T08:34:11.510Z,34.6
2016-11-17T08:35:11.844Z,35.57
2016-11-17T08:36:11.391Z,35.57
2016-11-17T08:37:11.328Z,35.94
2016-11-17T08:38:11.271Z,35.94
2016-11-17T08:39:11.211Z,35.74
2016-11-17T08:40:11.147Z,35.55
2016-11-17T08:41:11.088Z,35.47
2016-11-17T08:42:11.030Z,35.57
2016-11-17T08:43:10.963Z,35.57
2016-11-17T08:44:10.902Z,35.37
2016-11-17T08:45:11.242Z,34.99
2016-11-17T08:46:10.827Z,34.89
2016-11-17T08:47:10.721Z,34.99
2016-11-17T08:48:10.662Z,34.99
2016-11-17T08:49:10.603Z,35.08
2016-11-17T08:50:10.541Z,34.7
2016-11-17T08:51:10.482Z,34.79
2016-11-17T08:52:10.420Z,34.79
2016-11-17T08:53:10.356Z,34.7
2016-11-17T08:54:10.299Z,34.79
2016-11-17T08:55:10.636Z,34.89
2016-11-17T08:56:10.175Z,35.08
2016-11-17T08:57:10.115Z,34.89
2016-11-17T08:58:10.055Z,35.08
2016-11-17T08:59:10.002Z,34.79
2016-11-17T09:00:09.984Z,34.7
2016-11-17T09:01:09.873Z,35.08
2016-11-17T09:02:10.011Z,35.08
2016-11-17T09:03:09.755Z,34.99
2016-11-17T09:04:09.693Z,35.28
2016-11-17T09:05:09.628Z,34.99
2016-11-17T09:06:09.893Z,35.37
2016-11-17T09:07:09.539Z,35.57
2016-11-17T09:08:09.446Z,35.47
2016-11-17T09:09:09.386Z,35.57
2016-11-17T09:10:09.325Z,35.66
2016-11-17T09:11:09.265Z,35.86
2016-11-17T09:12:09.204Z,35.57
2016-11-17T09:13:09.142Z,35.37
2016-11-17T09:14:09.081Z,35.47
2016-11-17T09:15:09.215Z,35.66
2016-11-17T09:16:08.961Z,35.95
2016-11-17T09:17:08.901Z,36.15
2016-11-17T09:18:08.843Z,36.44
2016-11-17T09:19:08.779Z,36.53
2016-11-17T09:20:08.720Z,37
2016-11-17T09:21:08.974Z,37.21
2016-11-17T09:22:08.598Z,37.12
2016-11-17T09:23:08.539Z,37.3
2016-11-17T09:24:08.477Z,37.5
2016-11-17T09:25:08.415Z,37.4
2016-11-17T09:26:08.356Z,37.5
2016-11-17T09:27:08.295Z,37.88
2016-11-17T09:28:08.233Z,38.18
2016-11-17T09:29:08.185Z,38.18
2016-11-17T09:30:08.115Z,38.28
2016-11-17T09:31:08.057Z,38.35
2016-11-17T09:32:07.991Z,38.46
2016-11-17T09:33:07.935Z,38.28
2016-11-17T09:34:07.868Z,38.66
2016-11-17T09:35:08.271Z,38.54
2016-11-17T09:36:07.782Z,38.54
2016-11-17T09:37:07.695Z,38.56
2016-11-17T09:38:07.624Z,38.46
2016-11-17T09:39:07.567Z,38.56
2016-11-17T09:40:07.682Z,39.32
2016-11-17T09:41:07.445Z,39.03
2016-11-17T09:42:07.385Z,39.22
2016-11-17T09:43:07.323Z,39.24
2016-11-17T09:44:07.261Z,39.12
2016-11-17T09:45:07.200Z,38.76
2016-11-17T09:46:07.141Z,38.56
2016-11-17T09:47:07.081Z,38.18
2016-11-17T09:48:07.020Z,37.79
2016-11-17T09:49:06.960Z,38.28
2016-11-17T09:50:06.900Z,38.16
2016-11-17T09:51:06.866Z,37.79
2016-11-17T09:52:06.778Z,38.25
2016-11-17T09:53:06.717Z,38.25
2016-11-17T09:54:06.656Z,37.88
2016-11-17T09:55:06.597Z,37.98
2016-11-17T09:56:06.538Z,38.06
2016-11-17T09:57:06.475Z,38.37
2016-11-17T09:58:06.417Z,38.28
2016-11-17T09:59:06.360Z,38.37
2016-11-17T10:00:06.293Z,38.08
2016-11-17T10:01:06.234Z,38.18
2016-11-17T10:02:06.195Z,38.85
2016-11-17T10:03:06.112Z,38.37
2016-11-17T10:04:06.050Z,39.12
2016-11-17T10:05:05.991Z,39.34
2016-11-17T10:06:05.928Z,38.74
2016-11-17T10:07:05.869Z,38.56
2016-11-17T10:08:05.810Z,38.46
2016-11-17T10:09:05.748Z,38.46
2016-11-17T10:10:05.686Z,38.35
2016-11-17T10:11:05.632Z,38.37
2016-11-17T10:12:05.567Z,38.46
2016-11-17T10:13:05.506Z,38.54
2016-11-17T10:14:05.444Z,38.37
2016-11-17T10:15:05.386Z,38.56
2016-11-17T10:16:05.331Z,39.32
2016-11-17T10:17:05.262Z,39.14
2016-11-17T10:18:05.205Z,39.04
2016-11-17T10:19:05.141Z,39.24
2016-11-17T10:20:05.083Z,39.34
2016-11-17T10:21:05.022Z,39.14
2016-11-17T10:22:04.964Z,39.14
2016-11-17T10:23:04.899Z,39.14
2016-11-17T10:24:04.837Z,38.76
2016-11-17T10:25:04.783Z,39.24
2016-11-17T10:26:04.719Z,39.12
2016-11-17T10:27:04.656Z,38.95
2016-11-17T10:28:04.595Z,38.93
2016-11-17T10:29:04.536Z,38.95
2016-11-17T10:30:04.474Z,38.76
2016-11-17T10:31:04.418Z,39.04
2016-11-17T10:32:04.365Z,39.04
2016-11-17T10:33:04.508Z,39.14
2016-11-17T10:34:04.231Z,39.04
2016-11-17T10:35:04.175Z,39.62
2016-11-17T10:36:04.111Z,39.72
2016-11-17T10:37:04.051Z,39.53
2016-11-17T10:38:03.986Z,39.53
2016-11-17T10:39:03.930Z,39.34
2016-11-17T10:40:03.870Z,39.53
2016-11-17T10:41:03.815Z,39.43
2016-11-17T10:42:03.748Z,39.62
2016-11-17T10:43:03.686Z,39.53
2016-11-17T10:44:03.636Z,39.41
2016-11-17T10:45:03.565Z,38.83
2016-11-17T10:46:03.513Z,38.64
2016-11-17T10:47:03.475Z,38.16
2016-11-17T10:48:03.700Z,38.35
2016-11-17T10:49:03.321Z,38.04
2016-11-17T10:50:03.266Z,38.33
2016-11-17T10:51:03.238Z,38.23
2016-11-17T10:52:03.143Z,38.14
2016-11-17T10:53:03.078Z,37.95
2016-11-17T10:54:03.022Z,37.75
2016-11-17T10:55:02.955Z,37.75
2016-11-17T10:56:02.904Z,37.75
2016-11-17T10:57:03.156Z,37.46
2016-11-17T10:58:02.774Z,37.65
2016-11-17T10:59:02.716Z,37.65
2016-11-17T11:00:02.652Z,37.46
2016-11-17T11:01:02.591Z,37.95
2016-11-17T11:02:02.530Z,37.85
2016-11-17T11:03:02.469Z,37.65
2016-11-17T11:04:02.409Z,37.96
2016-11-17T11:05:02.347Z,38.33
2016-11-17T11:06:02.286Z,38.45
2016-11-17T11:07:02.224Z,38.25
2016-11-17T11:08:02.164Z,39.22
2016-11-17T11:09:02.107Z,39.41
2016-11-17T11:10:02.396Z,39.51
2016-11-17T11:11:01.979Z,40.47
2016-11-17T11:12:01.918Z,40.38
2016-11-17T11:13:01.858Z,40.47
2016-11-17T11:14:01.801Z,40.67
2016-11-17T11:15:01.735Z,41.54
2016-11-17T11:16:01.675Z,41.54
2016-11-17T11:17:01.615Z,41.25
2016-11-17T11:18:01.563Z,41.35
2016-11-17T11:19:01.491Z,41.93
2016-11-17T11:20:01.751Z,41.44
2016-11-17T11:21:01.372Z,42.7
2016-11-17T11:22:01.309Z,41.83
2016-11-17T11:23:01.250Z,42.52
2016-11-17T11:24:01.201Z,42.79
2016-11-17T11:25:01.132Z,42.6
2016-11-17T11:26:01.071Z,42.99
2016-11-17T11:27:01.019Z,43.49
2016-11-17T11:28:00.948Z,43.68
2016-11-17T11:29:00.891Z,43.49
2016-11-17T11:30:00.847Z,44.07
2016-11-17T11:31:00.770Z,43.98
2016-11-17T11:32:00.702Z,44.17
2016-11-17T11:33:00.645Z,43.98
2016-11-17T11:34:00.583Z,44.56
2016-11-17T11:35:00.533Z,44.17
2016-11-17T11:36:00.464Z,44.46
2016-11-17T11:37:00.400Z,44.56
2016-11-17T11:38:00.344Z,44.46
2016-11-17T11:39:00.285Z,44.65
2016-11-17T11:40:00.220Z,44.84
2016-11-17T11:41:00.158Z,45.04
2016-11-17T11:42:00.098Z,45.62
2016-11-17T11:43:00.037Z,45.23
2016-11-17T11:43:59.975Z,43.4
2016-11-17T11:44:59.942Z,44.07
2016-11-17T11:45:59.880Z,44.26
2016-11-17T11:46:59.799Z,44.94
2016-11-17T11:47:59.736Z,44.65
2016-11-17T11:48:59.674Z,43.88
2016-11-17T11:49:59.615Z,43.98
2016-11-17T11:50:59.555Z,44.84
2016-11-17T11:51:59.492Z,44.94
2016-11-17T11:52:59.433Z,43.78
2016-11-17T11:53:59.370Z,44.46
2016-11-17T11:54:59.311Z,44.36
2016-11-17T11:55:59.251Z,43.98
2016-11-17T11:56:59.196Z,44.26
2016-11-17T11:57:59.134Z,44.84
2016-11-17T11:58:59.069Z,45.72
2016-11-17T11:59:59.009Z,45.81
2016-11-17T12:00:58.953Z,46.39
2016-11-17T12:01:58.889Z,45.52
2016-11-17T12:02:58.828Z,45.81
2016-11-17T12:03:58.766Z,44.17
2016-11-17T12:04:58.712Z,44.17
2016-11-17T12:05:58.646Z,43.98
2016-11-17T12:06:58.587Z,43.98
2016-11-17T12:07:58.527Z,43.49
2016-11-17T12:08:58.466Z,43.98
2016-11-17T12:09:58.406Z,43.4
2016-11-17T12:10:58.346Z,43.01
2016-11-17T12:11:58.284Z,43.49
2016-11-17T12:12:58.224Z,43.59
2016-11-17T12:13:58.723Z,43.4
2016-11-17T12:14:58.102Z,43.59
2016-11-17T12:15:58.040Z,43.49
2016-11-17T12:16:57.981Z,43.2
2016-11-17T12:17:57.921Z,42.62
2016-11-17T12:18:57.863Z,42.62
2016-11-17T12:19:57.806Z,41.83
2016-11-17T12:20:57.741Z,41.56
2016-11-17T12:21:57.679Z,41.66
2016-11-17T12:22:57.619Z,41.25
2016-11-17T12:23:57.561Z,41.63
2016-11-17T12:24:57.500Z,40.96
2016-11-17T12:25:57.441Z,40.86
2016-11-17T12:26:57.378Z,41.15
2016-11-17T12:27:57.315Z,41.05
2016-11-17T12:28:57.275Z,41.35
2016-11-17T12:29:57.196Z,41.25
2016-11-17T12:30:57.135Z,41.05
2016-11-17T12:31:57.075Z,40.96
2016-11-17T12:32:57.012Z,41.15
2016-11-17T12:33:56.952Z,41.15
2016-11-17T12:34:56.891Z,41.05
2016-11-17T12:35:56.829Z,41.15
2016-11-17T12:36:56.773Z,41.15
2016-11-17T12:37:56.745Z,41.15
2016-11-17T12:38:56.668Z,40.96
2016-11-17T12:39:56.588Z,41.25
2016-11-17T12:40:56.530Z,40.77
2016-11-17T12:41:56.467Z,40.67
2016-11-17T12:42:56.408Z,40.67
2016-11-17T12:43:56.362Z,40.77
2016-11-17T12:44:56.284Z,40.47
2016-11-17T12:45:56.224Z,40.19
2016-11-17T12:46:56.164Z,40.38
2016-11-17T12:47:56.115Z,40.28
2016-11-17T12:48:56.244Z,40.38
2016-11-17T12:49:55.980Z,40.38
2016-11-17T12:50:55.923Z,40.47
2016-11-17T12:51:55.862Z,40.47
2016-11-17T12:52:55.798Z,40.19
2016-11-17T12:53:55.738Z,40.19
2016-11-17T12:54:55.677Z,40.28
2016-11-17T12:55:55.766Z,40.28
2016-11-17T12:56:55.874Z,40.57